sensor_id;sensor_type;location;lat;lon;timestamp;pressure;altitude;pressure_sealevel;temperature
59339;BMP280;45117;50.960;5.500;2023-03-01T00:02:13;102038.59;;;-1.23
59339;BMP280;45117;50.960;5.500;2023-03-01T00:04:40;102041.47;;;-1.20
59339;BMP280;45117;50.960;5.500;2023-03-01T00:07:08;102033.84;;;-1.21
59339;BMP280;45117;50.960;5.500;2023-03-01T00:09:35;102034.09;;;-1.18
59339;BMP280;45117;50.960;5.500;2023-03-01T00:12:02;102037.03;;;-1.25
59339;BMP280;45117;50.960;5.500;2023-03-01T00:14:29;102028.94;;;-1.33
59339;BMP280;45117;50.960;5.500;2023-03-01T00:16:56;102032.59;;;-1.29
59339;BMP280;45117;50.960;5.500;2023-03-01T00:19:22;102032.84;;;-1.36
59339;BMP280;45117;50.960;5.500;2023-03-01T00:21:49;102032.13;;;-1.41
59339;BMP280;45117;50.960;5.500;2023-03-01T00:24:16;102033.44;;;-1.44
59339;BMP280;45117;50.960;5.500;2023-03-01T00:26:43;102037.16;;;-1.45
59339;BMP280;45117;50.960;5.500;2023-03-01T00:29:10;102048.50;;;-1.50
59339;BMP280;45117;50.960;5.500;2023-03-01T00:31:36;102043.22;;;-1.50
59339;BMP280;45117;50.960;5.500;2023-03-01T00:34:04;102046.16;;;-1.51
59339;BMP280;45117;50.960;5.500;2023-03-01T00:36:33;102050.03;;;-1.43
59339;BMP280;45117;50.960;5.500;2023-03-01T00:39:00;102056.41;;;-1.50
59339;BMP280;45117;50.960;5.500;2023-03-01T00:41:29;102055.91;;;-1.52
59339;BMP280;45117;50.960;5.500;2023-03-01T00:43:56;102057.69;;;-1.47
59339;BMP280;45117;50.960;5.500;2023-03-01T00:46:25;102057.69;;;-1.47
59339;BMP280;45117;50.960;5.500;2023-03-01T00:48:51;102053.03;;;-1.55
59339;BMP280;45117;50.960;5.500;2023-03-01T00:51:21;102048.00;;;-1.52
59339;BMP280;45117;50.960;5.500;2023-03-01T00:53:51;102044.06;;;-1.54
59339;BMP280;45117;50.960;5.500;2023-03-01T00:56:19;102047.19;;;-1.52
59339;BMP280;45117;50.960;5.500;2023-03-01T00:58:47;102045.16;;;-1.65
59339;BMP280;45117;50.960;5.500;2023-03-01T01:01:15;102043.03;;;-1.58
59339;BMP280;45117;50.960;5.500;2023-03-01T01:03:44;102040.94;;;-1.61
59339;BMP280;45117;50.960;5.500;2023-03-01T01:06:15;102042.75;;;-1.57
59339;BMP280;45117;50.960;5.500;2023-03-01T01:08:42;102043.31;;;-1.60
59339;BMP280;45117;50.960;5.500;2023-03-01T01:11:09;102033.34;;;-1.68
59339;BMP280;45117;50.960;5.500;2023-03-01T01:13:36;102036.81;;;-1.72
59339;BMP280;45117;50.960;5.500;2023-03-01T01:16:05;102033.91;;;-1.71
59339;BMP280;45117;50.960;5.500;2023-03-01T01:18:32;102029.44;;;-1.76
59339;BMP280;45117;50.960;5.500;2023-03-01T01:21:03;102038.13;;;-1.75
59339;BMP280;45117;50.960;5.500;2023-03-01T01:23:30;102032.59;;;-1.74
59339;BMP280;45117;50.960;5.500;2023-03-01T01:25:56;102026.88;;;-1.81
59339;BMP280;45117;50.960;5.500;2023-03-01T01:28:23;102025.81;;;-1.85
59339;BMP280;45117;50.960;5.500;2023-03-01T01:30:49;102016.88;;;-1.84
59339;BMP280;45117;50.960;5.500;2023-03-01T01:33:17;102017.66;;;-1.88
59339;BMP280;45117;50.960;5.500;2023-03-01T01:35:45;102015.28;;;-1.90
59339;BMP280;45117;50.960;5.500;2023-03-01T01:38:11;102017.91;;;-1.90
59339;BMP280;45117;50.960;5.500;2023-03-01T01:40:43;102007.91;;;-1.88
59339;BMP280;45117;50.960;5.500;2023-03-01T01:43:14;102007.41;;;-1.85
59339;BMP280;45117;50.960;5.500;2023-03-01T01:45:43;102004.25;;;-1.92
59339;BMP280;45117;50.960;5.500;2023-03-01T01:48:12;101994.56;;;-1.96
59339;BMP280;45117;50.960;5.500;2023-03-01T01:50:42;101987.44;;;-1.96
59339;BMP280;45117;50.960;5.500;2023-03-01T01:53:11;101981.16;;;-2.00
59339;BMP280;45117;50.960;5.500;2023-03-01T01:55:41;101977.50;;;-2.04
59339;BMP280;45117;50.960;5.500;2023-03-01T01:58:10;101978.81;;;-2.02
59339;BMP280;45117;50.960;5.500;2023-03-01T02:00:38;101978.28;;;-2.04
59339;BMP280;45117;50.960;5.500;2023-03-01T02:03:08;101975.91;;;-2.00
59339;BMP280;45117;50.960;5.500;2023-03-01T02:05:39;101973.00;;;-1.99
59339;BMP280;45117;50.960;5.500;2023-03-01T02:08:12;101966.69;;;-2.03
59339;BMP280;45117;50.960;5.500;2023-03-01T02:10:40;101954.66;;;-2.09
59339;BMP280;45117;50.960;5.500;2023-03-01T02:13:07;101960.72;;;-2.13
59339;BMP280;45117;50.960;5.500;2023-03-01T02:15:35;101959.16;;;-2.19
59339;BMP280;45117;50.960;5.500;2023-03-01T02:18:03;101962.34;;;-2.22
59339;BMP280;45117;50.960;5.500;2023-03-01T02:20:33;101955.50;;;-2.24
59339;BMP280;45117;50.960;5.500;2023-03-01T02:23:01;101957.66;;;-2.31
59339;BMP280;45117;50.960;5.500;2023-03-01T02:25:35;101955.53;;;-2.34
59339;BMP280;45117;50.960;5.500;2023-03-01T02:28:08;101953.44;;;-2.37
59339;BMP280;45117;50.960;5.500;2023-03-01T02:30:39;101952.16;;;-2.39
59339;BMP280;45117;50.960;5.500;2023-03-01T02:33:26;101946.13;;;-2.40
59339;BMP280;45117;50.960;5.500;2023-03-01T02:35:53;101946.63;;;-2.38
59339;BMP280;45117;50.960;5.500;2023-03-01T02:38:21;101943.78;;;-2.52
59339;BMP280;45117;50.960;5.500;2023-03-01T02:40:49;101940.38;;;-2.52
59339;BMP280;45117;50.960;5.500;2023-03-01T02:43:17;101941.69;;;-2.55
59339;BMP280;45117;50.960;5.500;2023-03-01T02:45:50;101939.84;;;-2.54
59339;BMP280;45117;50.960;5.500;2023-03-01T02:48:17;101941.41;;;-2.53
59339;BMP280;45117;50.960;5.500;2023-03-01T02:50:52;101939.84;;;-2.54
59339;BMP280;45117;50.960;5.500;2023-03-01T02:53:27;101935.69;;;-2.60
59339;BMP280;45117;50.960;5.500;2023-03-01T02:55:54;101941.44;;;-2.58
59339;BMP280;45117;50.960;5.500;2023-03-01T02:58:21;101939.34;;;-2.56
59339;BMP280;45117;50.960;5.500;2023-03-01T03:00:49;101935.66;;;-2.55
59339;BMP280;45117;50.960;5.500;2023-03-01T03:03:17;101935.69;;;-2.65
59339;BMP280;45117;50.960;5.500;2023-03-01T03:05:45;101939.91;;;-2.64
59339;BMP280;45117;50.960;5.500;2023-03-01T03:08:12;101928.84;;;-2.66
59339;BMP280;45117;50.960;5.500;2023-03-01T03:10:42;101940.94;;;-2.71
59339;BMP280;45117;50.960;5.500;2023-03-01T03:13:10;101939.13;;;-2.80
59339;BMP280;45117;50.960;5.500;2023-03-01T03:15:38;101946.19;;;-2.71
59339;BMP280;45117;50.960;5.500;2023-03-01T03:18:11;101948.00;;;-2.66
59339;BMP280;45117;50.960;5.500;2023-03-01T03:20:39;101950.41;;;-2.59
59339;BMP280;45117;50.960;5.500;2023-03-01T03:23:06;101951.44;;;-2.65
59339;BMP280;45117;50.960;5.500;2023-03-01T03:25:33;101946.19;;;-2.60
59339;BMP280;45117;50.960;5.500;2023-03-01T03:28:03;101943.00;;;-2.57
59339;BMP280;45117;50.960;5.500;2023-03-01T03:30:36;101952.75;;;-2.63
59339;BMP280;45117;50.960;5.500;2023-03-01T03:33:06;101948.28;;;-2.62
59339;BMP280;45117;50.960;5.500;2023-03-01T03:35:37;101952.22;;;-2.60
59339;BMP280;45117;50.960;5.500;2023-03-01T03:38:06;101946.44;;;-2.67
59339;BMP280;45117;50.960;5.500;2023-03-01T03:40:42;101937.28;;;-2.69
59339;BMP280;45117;50.960;5.500;2023-03-01T03:43:11;101940.13;;;-2.66
59339;BMP280;45117;50.960;5.500;2023-03-01T03:45:38;101929.38;;;-2.75
59339;BMP280;45117;50.960;5.500;2023-03-01T03:48:07;101941.72;;;-2.70
59339;BMP280;45117;50.960;5.500;2023-03-01T03:50:34;101940.41;;;-2.67
59339;BMP280;45117;50.960;5.500;2023-03-01T03:53:02;101937.28;;;-2.64
59339;BMP280;45117;50.960;5.500;2023-03-01T03:55:32;101932.81;;;-2.69
59339;BMP280;45117;50.960;5.500;2023-03-01T03:58:00;101935.44;;;-2.69
59339;BMP280;45117;50.960;5.500;2023-03-01T04:00:32;101933.31;;;-2.62
59339;BMP280;45117;50.960;5.500;2023-03-01T04:02:59;101934.63;;;-2.59
59339;BMP280;45117;50.960;5.500;2023-03-01T04:05:28;101923.09;;;-2.74
59339;BMP280;45117;50.960;5.500;2023-03-01T04:07:55;101925.47;;;-2.72
59339;BMP280;45117;50.960;5.500;2023-03-01T04:10:34;101924.13;;;-2.69
59339;BMP280;45117;50.960;5.500;2023-03-01T04:13:02;101918.09;;;-2.65
59339;BMP280;45117;50.960;5.500;2023-03-01T04:15:31;101919.66;;;-2.69
59339;BMP280;45117;50.960;5.500;2023-03-01T04:17:58;101914.66;;;-2.71
59339;BMP280;45117;50.960;5.500;2023-03-01T04:20:29;101913.88;;;-2.71
59339;BMP280;45117;50.960;5.500;2023-03-01T04:23:01;101913.91;;;-2.76
59339;BMP280;45117;50.960;5.500;2023-03-01T04:25:36;101913.41;;;-2.78
59339;BMP280;45117;50.960;5.500;2023-03-01T04:28:09;101914.44;;;-2.79
59339;BMP280;45117;50.960;5.500;2023-03-01T04:30:37;101908.41;;;-2.80
59339;BMP280;45117;50.960;5.500;2023-03-01T04:33:04;101905.53;;;-2.78
59339;BMP280;45117;50.960;5.500;2023-03-01T04:35:34;101884.28;;;-2.92
59339;BMP280;45117;50.960;5.500;2023-03-01T04:38:02;101891.59;;;-2.84
59339;BMP280;45117;50.960;5.500;2023-03-01T04:40:31;101885.28;;;-2.83
59339;BMP280;45117;50.960;5.500;2023-03-01T04:42:58;101885.84;;;-2.91
59339;BMP280;45117;50.960;5.500;2023-03-01T04:45:25;101885.34;;;-2.93
59339;BMP280;45117;50.960;5.500;2023-03-01T04:47:53;101874.56;;;-2.97
59339;BMP280;45117;50.960;5.500;2023-03-01T04:50:27;101873.53;;;-3.01
59339;BMP280;45117;50.960;5.500;2023-03-01T04:52:56;101876.69;;;-2.93
59339;BMP280;45117;50.960;5.500;2023-03-01T04:55:25;101868.03;;;-2.99
59339;BMP280;45117;50.960;5.500;2023-03-01T04:57:52;101868.56;;;-3.02
59339;BMP280;45117;50.960;5.500;2023-03-01T05:00:20;101861.72;;;-2.98
59339;BMP280;45117;50.960;5.500;2023-03-01T05:02:50;101868.03;;;-2.99
59339;BMP280;45117;50.960;5.500;2023-03-01T05:05:24;101864.59;;;-3.00
59339;BMP280;45117;50.960;5.500;2023-03-01T05:07:57;101875.09;;;-3.00
59339;BMP280;45117;50.960;5.500;2023-03-01T05:10:25;101870.94;;;-3.11
59339;BMP280;45117;50.960;5.500;2023-03-01T05:12:54;101866.44;;;-3.05
59339;BMP280;45117;50.960;5.500;2023-03-01T05:15:23;101855.44;;;-3.12
59339;BMP280;45117;50.960;5.500;2023-03-01T05:17:51;101864.13;;;-3.12
59339;BMP280;45117;50.960;5.500;2023-03-01T05:20:17;101871.19;;;-3.07
59339;BMP280;45117;50.960;5.500;2023-03-01T05:22:48;101877.50;;;-3.03
59339;BMP280;45117;50.960;5.500;2023-03-01T05:25:16;101871.97;;;-3.02
59339;BMP280;45117;50.960;5.500;2023-03-01T05:27:43;101878.53;;;-3.04
59339;BMP280;45117;50.960;5.500;2023-03-01T05:30:10;101880.59;;;-2.96
59339;BMP280;45117;50.960;5.500;2023-03-01T05:32:45;101880.88;;;-2.98
59339;BMP280;45117;50.960;5.500;2023-03-01T05:35:12;101869.59;;;-2.98
59339;BMP280;45117;50.960;5.500;2023-03-01T05:37:43;101867.50;;;-3.01
59339;BMP280;45117;50.960;5.500;2023-03-01T05:40:12;101869.06;;;-2.90
59339;BMP280;45117;50.960;5.500;2023-03-01T05:42:44;101869.59;;;-2.98
59339;BMP280;45117;50.960;5.500;2023-03-01T05:45:11;101868.81;;;-3.04
59339;BMP280;45117;50.960;5.500;2023-03-01T05:47:42;101867.22;;;-3.00
59339;BMP280;45117;50.960;5.500;2023-03-01T05:50:12;101866.97;;;-2.98
59339;BMP280;45117;50.960;5.500;2023-03-01T05:52:45;101867.22;;;-3.05
59339;BMP280;45117;50.960;5.500;2023-03-01T05:55:15;101869.59;;;-3.03
59339;BMP280;45117;50.960;5.500;2023-03-01T05:57:44;101862.75;;;-3.04
59339;BMP280;45117;50.960;5.500;2023-03-01T06:00:13;101863.31;;;-3.12
59339;BMP280;45117;50.960;5.500;2023-03-01T06:02:40;101867.28;;;-3.15
59339;BMP280;45117;50.960;5.500;2023-03-01T06:05:09;101855.47;;;-3.17
59339;BMP280;45117;50.960;5.500;2023-03-01T06:07:36;101863.63;;;-3.19
59339;BMP280;45117;50.960;5.500;2023-03-01T06:10:03;101860.19;;;-3.14
59339;BMP280;45117;50.960;5.500;2023-03-01T06:12:30;101852.84;;;-3.17
59339;BMP280;45117;50.960;5.500;2023-03-01T06:14:59;101850.75;;;-3.21
59339;BMP280;45117;50.960;5.500;2023-03-01T06:17:28;101850.25;;;-3.23
59339;BMP280;45117;50.960;5.500;2023-03-01T06:19:55;101849.97;;;-3.21
59339;BMP280;45117;50.960;5.500;2023-03-01T06:22:22;101834.19;;;-3.26
59339;BMP280;45117;50.960;5.500;2023-03-01T06:24:48;101838.16;;;-3.29
59339;BMP280;45117;50.960;5.500;2023-03-01T06:27:15;101837.34;;;-3.29
59339;BMP280;45117;50.960;5.500;2023-03-01T06:29:43;101841.56;;;-3.33
59339;BMP280;45117;50.960;5.500;2023-03-01T06:32:11;101839.97;;;-3.29
59339;BMP280;45117;50.960;5.500;2023-03-01T06:34:37;101853.34;;;-3.26
59339;BMP280;45117;50.960;5.500;2023-03-01T06:37:04;101845.75;;;-3.27
59339;BMP280;45117;50.960;5.500;2023-03-01T06:39:32;101865.19;;;-3.23
59339;BMP280;45117;50.960;5.500;2023-03-01T06:41:59;101859.44;;;-3.20
59339;BMP280;45117;50.960;5.500;2023-03-01T06:44:25;101859.94;;;-3.18
59339;BMP280;45117;50.960;5.500;2023-03-01T06:46:52;101863.09;;;-3.16
59339;BMP280;45117;50.960;5.500;2023-03-01T06:49:20;101858.38;;;-3.19
59339;BMP280;45117;50.960;5.500;2023-03-01T06:51:47;101865.97;;;-3.17
59339;BMP280;45117;50.960;5.500;2023-03-01T06:54:14;101856.25;;;-3.17
59339;BMP280;45117;50.960;5.500;2023-03-01T06:56:41;101864.91;;;-3.11
59339;BMP280;45117;50.960;5.500;2023-03-01T06:59:07;101866.97;;;-3.08
59339;BMP280;45117;50.960;5.500;2023-03-01T07:01:34;101864.88;;;-3.06
59339;BMP280;45117;50.960;5.500;2023-03-01T07:04:00;101863.81;;;-3.00
59339;BMP280;45117;50.960;5.500;2023-03-01T07:06:28;101859.34;;;-3.00
59339;BMP280;45117;50.960;5.500;2023-03-01T07:08:55;101858.59;;;-2.95
59339;BMP280;45117;50.960;5.500;2023-03-01T07:11:22;101865.66;;;-2.90
59339;BMP280;45117;50.960;5.500;2023-03-01T07:13:48;101861.94;;;-2.84
59339;BMP280;45117;50.960;5.500;2023-03-01T07:16:15;101859.56;;;-2.81
59339;BMP280;45117;50.960;5.500;2023-03-01T07:18:42;101866.28;;;-1.70
59339;BMP280;45117;50.960;5.500;2023-03-01T07:21:09;101871.25;;;0.68
59339;BMP280;45117;50.960;5.500;2023-03-01T07:23:38;101859.72;;;1.64
59339;BMP280;45117;50.960;5.500;2023-03-01T07:26:05;101861.09;;;2.06
59339;BMP280;45117;50.960;5.500;2023-03-01T07:28:31;101857.19;;;2.74
59339;BMP280;45117;50.960;5.500;2023-03-01T07:31:01;101852.25;;;3.42
59339;BMP280;45117;50.960;5.500;2023-03-01T07:33:28;101857.25;;;4.08
59339;BMP280;45117;50.960;5.500;2023-03-01T07:36:02;101859.28;;;4.11
59339;BMP280;45117;50.960;5.500;2023-03-01T07:38:29;101858.00;;;4.26
59339;BMP280;45117;50.960;5.500;2023-03-01T07:40:59;101863.09;;;4.69
59339;BMP280;45117;50.960;5.500;2023-03-01T07:43:26;101864.00;;;4.73
59339;BMP280;45117;50.960;5.500;2023-03-01T07:45:52;101862.72;;;5.54
59339;BMP280;45117;50.960;5.500;2023-03-01T07:48:19;101861.09;;;5.08
59339;BMP280;45117;50.960;5.500;2023-03-01T07:50:45;101858.13;;;4.80
59339;BMP280;45117;50.960;5.500;2023-03-01T07:53:12;101857.81;;;4.31
59339;BMP280;45117;50.960;5.500;2023-03-01T07:55:39;101828.78;;;3.53
59339;BMP280;45117;50.960;5.500;2023-03-01T07:58:07;101861.44;;;3.27
59339;BMP280;45117;50.960;5.500;2023-03-01T08:00:33;101858.34;;;3.25
59339;BMP280;45117;50.960;5.500;2023-03-01T08:03:00;101861.28;;;3.06
59339;BMP280;45117;50.960;5.500;2023-03-01T08:05:26;101858.34;;;3.17
59339;BMP280;45117;50.960;5.500;2023-03-01T08:07:53;101865.03;;;3.75
59339;BMP280;45117;50.960;5.500;2023-03-01T08:10:20;101849.47;;;3.21
59339;BMP280;45117;50.960;5.500;2023-03-01T08:12:46;101850.28;;;3.95
59339;BMP280;45117;50.960;5.500;2023-03-01T08:15:14;101850.13;;;4.29
59339;BMP280;45117;50.960;5.500;2023-03-01T08:17:41;101849.22;;;4.25
59339;BMP280;45117;50.960;5.500;2023-03-01T08:20:09;101854.38;;;4.30
59339;BMP280;45117;50.960;5.500;2023-03-01T08:22:37;101850.63;;;4.31
59339;BMP280;45117;50.960;5.500;2023-03-01T08:25:04;101850.47;;;3.90
59339;BMP280;45117;50.960;5.500;2023-03-01T08:27:31;101850.81;;;4.77
59339;BMP280;45117;50.960;5.500;2023-03-01T08:29:57;101837.28;;;4.70
59339;BMP280;45117;50.960;5.500;2023-03-01T08:32:25;101838.16;;;5.15
59339;BMP280;45117;50.960;5.500;2023-03-01T08:34:52;101827.00;;;5.55
59339;BMP280;45117;50.960;5.500;2023-03-01T08:37:18;101824.75;;;6.03
59339;BMP280;45117;50.960;5.500;2023-03-01T08:39:46;101817.13;;;5.56
59339;BMP280;45117;50.960;5.500;2023-03-01T08:42:12;101817.84;;;6.02
59339;BMP280;45117;50.960;5.500;2023-03-01T08:44:39;101821.53;;;5.06
59339;BMP280;45117;50.960;5.500;2023-03-01T08:47:05;101818.59;;;5.78
59339;BMP280;45117;50.960;5.500;2023-03-01T08:49:33;101808.78;;;6.55
59339;BMP280;45117;50.960;5.500;2023-03-01T08:52:01;101810.28;;;5.91
59339;BMP280;45117;50.960;5.500;2023-03-01T08:54:28;101817.16;;;5.80
59339;BMP280;45117;50.960;5.500;2023-03-01T08:56:55;101813.75;;;5.13
59339;BMP280;45117;50.960;5.500;2023-03-01T08:59:25;101812.72;;;5.96
59339;BMP280;45117;50.960;5.500;2023-03-01T09:01:51;101814.25;;;6.22
59339;BMP280;45117;50.960;5.500;2023-03-01T09:04:18;101814.94;;;6.31
59339;BMP280;45117;50.960;5.500;2023-03-01T09:06:46;101827.69;;;6.38
59339;BMP280;45117;50.960;5.500;2023-03-01T09:09:14;101825.78;;;5.65
59339;BMP280;45117;50.960;5.500;2023-03-01T09:11:42;101818.88;;;5.39
59339;BMP280;45117;50.960;5.500;2023-03-01T09:14:11;101813.59;;;4.98
59339;BMP280;45117;50.960;5.500;2023-03-01T09:16:38;101812.72;;;5.96
59339;BMP280;45117;50.960;5.500;2023-03-01T09:19:05;101814.59;;;6.45
59339;BMP280;45117;50.960;5.500;2023-03-01T09:21:31;101806.72;;;6.36
59339;BMP280;45117;50.960;5.500;2023-03-01T09:23:59;101816.69;;;5.66
59339;BMP280;45117;50.960;5.500;2023-03-01T09:26:26;101819.28;;;6.23
59339;BMP280;45117;50.960;5.500;2023-03-01T09:28:55;101816.41;;;6.16
59339;BMP280;45117;50.960;5.500;2023-03-01T09:31:23;101809.81;;;6.26
59339;BMP280;45117;50.960;5.500;2023-03-01T09:33:52;101806.66;;;6.89
59339;BMP280;45117;50.960;5.500;2023-03-01T09:36:21;101803.84;;;6.17
59339;BMP280;45117;50.960;5.500;2023-03-01T09:38:48;101809.53;;;6.03
59339;BMP280;45117;50.960;5.500;2023-03-01T09:41:27;101816.97;;;5.85
59339;BMP280;45117;50.960;5.500;2023-03-01T09:43:59;101808.94;;;5.97
59339;BMP280;45117;50.960;5.500;2023-03-01T09:46:26;101810.06;;;5.39
59339;BMP280;45117;50.960;5.500;2023-03-01T09:48:56;101809.50;;;5.79
59339;BMP280;45117;50.960;5.500;2023-03-01T09:51:28;101807.38;;;5.72
59339;BMP280;45117;50.960;5.500;2023-03-01T09:53:56;101797.50;;;5.97
59339;BMP280;45117;50.960;5.500;2023-03-01T09:56:30;101801.84;;;5.77
59339;BMP280;45117;50.960;5.500;2023-03-01T09:59:03;101803.72;;;5.89
59339;BMP280;45117;50.960;5.500;2023-03-01T10:01:38;101801.28;;;5.72
59339;BMP280;45117;50.960;5.500;2023-03-01T10:04:32;101798.34;;;5.40
59339;BMP280;45117;50.960;5.500;2023-03-01T10:07:07;101793.53;;;5.33
59339;BMP280;45117;50.960;5.500;2023-03-01T10:09:40;101788.66;;;5.23
59339;BMP280;45117;50.960;5.500;2023-03-01T10:12:11;101788.09;;;6.00
59339;BMP280;45117;50.960;5.500;2023-03-01T10:14:42;101776.63;;;5.62
59339;BMP280;45117;50.960;5.500;2023-03-01T10:17:19;101776.31;;;5.88
59339;BMP280;45117;50.960;5.500;2023-03-01T10:19:50;101774.03;;;6.27
59339;BMP280;45117;50.960;5.500;2023-03-01T10:22:19;101778.94;;;5.64
59339;BMP280;45117;50.960;5.500;2023-03-01T10:24:47;101761.31;;;6.08
59339;BMP280;45117;50.960;5.500;2023-03-01T10:27:17;101757.09;;;6.19
59339;BMP280;45117;50.960;5.500;2023-03-01T10:29:49;101754.47;;;6.47
59339;BMP280;45117;50.960;5.500;2023-03-01T10:32:17;101749.00;;;6.04
59339;BMP280;45117;50.960;5.500;2023-03-01T10:34:44;101743.13;;;5.98
59339;BMP280;45117;50.960;5.500;2023-03-01T10:37:12;101739.59;;;6.46
59339;BMP280;45117;50.960;5.500;2023-03-01T10:39:56;101735.81;;;6.35
59339;BMP280;45117;50.960;5.500;2023-03-01T10:42:29;101740.34;;;6.35
59339;BMP280;45117;50.960;5.500;2023-03-01T10:44:56;101744.78;;;6.15
59339;BMP280;45117;50.960;5.500;2023-03-01T10:47:24;101740.78;;;5.84
59339;BMP280;45117;50.960;5.500;2023-03-01T10:49:53;101731.59;;;6.34
59339;BMP280;45117;50.960;5.500;2023-03-01T10:52:22;101734.91;;;5.66
59339;BMP280;45117;50.960;5.500;2023-03-01T10:54:54;101734.13;;;5.66
59339;BMP280;45117;50.960;5.500;2023-03-01T10:57:34;101735.41;;;6.21
59339;BMP280;45117;50.960;5.500;2023-03-01T11:00:18;101736.75;;;6.55
59339;BMP280;45117;50.960;5.500;2023-03-01T11:02:48;101738.25;;;6.68
59339;BMP280;45117;50.960;5.500;2023-03-01T11:05:23;101717.75;;;6.29
59339;BMP280;45117;50.960;5.500;2023-03-01T11:07:51;101717.69;;;6.01
59339;BMP280;45117;50.960;5.500;2023-03-01T11:10:22;101727.16;;;5.74
59339;BMP280;45117;50.960;5.500;2023-03-01T11:12:51;101722.03;;;5.68
59339;BMP280;45117;50.960;5.500;2023-03-01T11:15:24;101711.66;;;6.16
59339;BMP280;45117;50.960;5.500;2023-03-01T11:17:51;101697.44;;;6.12
59339;BMP280;45117;50.960;5.500;2023-03-01T11:20:24;101710.16;;;6.03
59339;BMP280;45117;50.960;5.500;2023-03-01T11:22:53;101717.16;;;6.23
59339;BMP280;45117;50.960;5.500;2023-03-01T11:25:24;101711.31;;;6.58
59339;BMP280;45117;50.960;5.500;2023-03-01T11:27:53;101719.19;;;6.26
59339;BMP280;45117;50.960;5.500;2023-03-01T11:30:23;101712.34;;;5.64
59339;BMP280;45117;50.960;5.500;2023-03-01T11:32:58;101703.41;;;6.21
59339;BMP280;45117;50.960;5.500;2023-03-01T11:35:28;101710.91;;;6.43
59339;BMP280;45117;50.960;5.500;2023-03-01T11:38:05;101696.34;;;6.13
59339;BMP280;45117;50.960;5.500;2023-03-01T11:40:37;101693.84;;;6.32
59339;BMP280;45117;50.960;5.500;2023-03-01T11:43:13;101686.94;;;6.03
59339;BMP280;45117;50.960;5.500;2023-03-01T11:45:52;101686.81;;;6.00
59339;BMP280;45117;50.960;5.500;2023-03-01T11:48:37;101683.81;;;6.41
59339;BMP280;45117;50.960;5.500;2023-03-01T11:51:09;101691.41;;;6.55
59339;BMP280;45117;50.960;5.500;2023-03-01T11:53:51;101694.31;;;6.10
59339;BMP280;45117;50.960;5.500;2023-03-01T11:56:29;101691.09;;;6.29
59339;BMP280;45117;50.960;5.500;2023-03-01T11:59:20;101702.44;;;6.13
59339;BMP280;45117;50.960;5.500;2023-03-01T12:02:00;101697.28;;;6.33
59339;BMP280;45117;50.960;5.500;2023-03-01T12:07:20;101693.69;;;6.01
59339;BMP280;45117;50.960;5.500;2023-03-01T12:10:13;101696.34;;;6.13
59339;BMP280;45117;50.960;5.500;2023-03-01T12:12:55;101681.69;;;6.35
59339;BMP280;45117;50.960;5.500;2023-03-01T12:18:37;101677.13;;;6.35
59339;BMP280;45117;50.960;5.500;2023-03-01T12:21:16;101659.34;;;6.39
59339;BMP280;45117;50.960;5.500;2023-03-01T12:26:46;101658.47;;;6.63
59339;BMP280;45117;50.960;5.500;2023-03-01T12:29:25;101660.13;;;6.40
59339;BMP280;45117;50.960;5.500;2023-03-01T12:32:23;101651.38;;;6.11
59339;BMP280;45117;50.960;5.500;2023-03-01T12:34:59;101658.53;;;6.23
59339;BMP280;45117;50.960;5.500;2023-03-01T12:37:36;101645.19;;;6.51
59339;BMP280;45117;50.960;5.500;2023-03-01T12:40:24;101631.81;;;6.35
59339;BMP280;45117;50.960;5.500;2023-03-01T12:43:02;101639.53;;;6.53
59339;BMP280;45117;50.960;5.500;2023-03-01T12:48:40;101621.06;;;6.60
59339;BMP280;45117;50.960;5.500;2023-03-01T12:51:11;101604.81;;;6.37
59339;BMP280;45117;50.960;5.500;2023-03-01T12:53:41;101602.03;;;6.45
59339;BMP280;45117;50.960;5.500;2023-03-01T12:56:12;101595.34;;;6.23
59339;BMP280;45117;50.960;5.500;2023-03-01T12:58:42;101581.97;;;6.52
59339;BMP280;45117;50.960;5.500;2023-03-01T13:01:19;101585.31;;;6.48
59339;BMP280;45117;50.960;5.500;2023-03-01T13:04:10;101568.47;;;6.44
59339;BMP280;45117;50.960;5.500;2023-03-01T13:06:43;101567.50;;;6.37
59339;BMP280;45117;50.960;5.500;2023-03-01T13:09:17;101579.22;;;6.32
59339;BMP280;45117;50.960;5.500;2023-03-01T13:11:47;101567.53;;;6.53
59339;BMP280;45117;50.960;5.500;2023-03-01T13:17:41;101583.00;;;6.47
59339;BMP280;45117;50.960;5.500;2023-03-01T13:20:15;101565.81;;;6.44
59339;BMP280;45117;50.960;5.500;2023-03-01T13:22:45;101580.69;;;6.77
59339;BMP280;45117;50.960;5.500;2023-03-01T13:25:15;101587.75;;;6.54
59339;BMP280;45117;50.960;5.500;2023-03-01T13:27:43;101584.72;;;6.55
59339;BMP280;45117;50.960;5.500;2023-03-01T13:30:40;101582.34;;;6.66
59339;BMP280;45117;50.960;5.500;2023-03-01T13:33:41;101569.16;;;6.89
59339;BMP280;45117;50.960;5.500;2023-03-01T13:36:11;101566.06;;;6.55
59339;BMP280;45117;50.960;5.500;2023-03-01T13:38:46;101565.88;;;6.80
59339;BMP280;45117;50.960;5.500;2023-03-01T13:41:13;101566.06;;;6.71
59339;BMP280;45117;50.960;5.500;2023-03-01T13:43:41;101548.94;;;6.72
59339;BMP280;45117;50.960;5.500;2023-03-01T13:46:11;101542.06;;;6.71
59339;BMP280;45117;50.960;5.500;2023-03-01T13:48:40;101545.75;;;6.82
59339;BMP280;45117;50.960;5.500;2023-03-01T13:51:10;101537.66;;;6.79
59339;BMP280;45117;50.960;5.500;2023-03-01T13:53:42;101537.50;;;6.56
59339;BMP280;45117;50.960;5.500;2023-03-01T13:56:12;101534.31;;;6.66
59339;BMP280;45117;50.960;5.500;2023-03-01T13:58:52;101526.91;;;6.75
59339;BMP280;45117;50.960;5.500;2023-03-01T14:01:25;101527.56;;;6.88
59339;BMP280;45117;50.960;5.500;2023-03-01T14:03:52;101523.72;;;6.69
59339;BMP280;45117;50.960;5.500;2023-03-01T14:06:22;101533.34;;;6.74
59339;BMP280;45117;50.960;5.500;2023-03-01T14:08:50;101536.91;;;6.46
59339;BMP280;45117;50.960;5.500;2023-03-01T14:14:31;101533.97;;;6.52
59339;BMP280;45117;50.960;5.500;2023-03-01T14:17:11;101519.84;;;6.51
59339;BMP280;45117;50.960;5.500;2023-03-01T14:19:40;101510.63;;;6.64
59339;BMP280;45117;50.960;5.500;2023-03-01T14:22:20;101512.47;;;6.60
59339;BMP280;45117;50.960;5.500;2023-03-01T14:24:49;101504.81;;;6.59
59339;BMP280;45117;50.960;5.500;2023-03-01T14:27:16;101506.88;;;6.65
59339;BMP280;45117;50.960;5.500;2023-03-01T14:29:44;101506.72;;;6.93
59339;BMP280;45117;50.960;5.500;2023-03-01T14:32:21;101514.59;;;6.86
59339;BMP280;45117;50.960;5.500;2023-03-01T14:34:50;101501.69;;;6.57
59339;BMP280;45117;50.960;5.500;2023-03-01T14:37:21;101500.25;;;6.59